createdAt,value
2018-11-06T00:01:13.107Z,24.57
2018-11-06T00:03:46.750Z,23.85
2018-11-06T00:06:14.907Z,22.77
2018-11-06T00:08:43.054Z,23.10
2018-11-06T00:11:12.111Z,20.50
2018-11-06T00:13:40.270Z,22.55
2018-11-06T00:16:09.275Z,22.50
2018-11-06T00:18:37.425Z,24.27
2018-11-06T00:21:05.750Z,22.57
2018-11-06T00:23:33.870Z,22.13
2018-11-06T00:26:02.061Z,22.73
2018-11-06T00:28:30.219Z,21.47
2018-11-06T00:30:58.371Z,20.48
2018-11-06T00:33:26.539Z,21.07
2018-11-06T00:35:54.663Z,21.85
2018-11-06T00:38:22.861Z,22.40
2018-11-06T00:40:51.122Z,20.43
2018-11-06T00:43:19.334Z,20.63
2018-11-06T00:45:47.486Z,20.20
2018-11-06T00:48:15.654Z,18.10
2018-11-06T00:50:43.784Z,18.70
2018-11-06T00:53:11.997Z,17.87
2018-11-06T00:55:40.126Z,18.25
2018-11-06T00:58:08.266Z,18.85
2018-11-06T01:00:36.446Z,16.25
2018-11-06T01:03:04.658Z,16.82
2018-11-06T01:05:32.800Z,19.23
2018-11-06T01:08:01.079Z,17.48
2018-11-06T01:10:29.241Z,17.30
2018-11-06T01:12:57.569Z,16.63
2018-11-06T01:15:25.738Z,16.15
2018-11-06T01:17:53.890Z,16.48
2018-11-06T01:20:22.086Z,17.07
2018-11-06T01:22:50.237Z,14.75
2018-11-06T01:25:18.390Z,17.42
2018-11-06T01:27:46.621Z,15.53
2018-11-06T01:30:17.141Z,17.12
2018-11-06T01:32:46.563Z,15.93
2018-11-06T01:35:15.231Z,17.02
2018-11-06T01:37:44.022Z,17.07
2018-11-06T01:40:14.407Z,16.52
2018-11-06T01:42:43.226Z,16.87
2018-11-06T01:45:13.670Z,17.73
2018-11-06T01:47:42.033Z,18.10
2018-11-06T01:50:12.556Z,16.62
2018-11-06T01:52:41.286Z,16.15
2018-11-06T01:55:10.660Z,16.55
2018-11-06T01:57:38.814Z,15.43
2018-11-06T02:00:10.266Z,20.48
2018-11-06T02:02:38.406Z,20.48
2018-11-06T02:05:07.638Z,21.97
2018-11-06T02:07:35.804Z,19.90
2018-11-06T02:10:03.997Z,20.30
2018-11-06T02:12:32.146Z,19.60
2018-11-06T02:15:00.771Z,20.03
2018-11-06T02:17:28.913Z,21.13
2018-11-06T02:19:57.086Z,19.47
2018-11-06T02:22:25.226Z,18.10
2018-11-06T02:24:53.365Z,17.63
2018-11-06T02:27:21.491Z,17.25
2018-11-06T02:29:49.626Z,16.70
2018-11-06T02:32:18.726Z,14.15
2018-11-06T02:34:46.818Z,14.68
2018-11-06T02:37:14.957Z,13.13
2018-11-06T02:39:43.090Z,16.33
2018-11-06T02:42:11.781Z,15.85
2018-11-06T02:44:39.938Z,15.17
2018-11-06T02:47:08.330Z,15.18
2018-11-06T02:49:36.508Z,15.20
2018-11-06T02:52:04.708Z,16.42
2018-11-06T02:54:32.954Z,15.75
2018-11-06T02:57:01.111Z,15.97
2018-11-06T02:59:29.248Z,18.40
2018-11-06T03:01:57.435Z,16.35
2018-11-06T03:04:25.581Z,17.10
2018-11-06T03:06:53.710Z,16.93
2018-11-06T03:09:21.879Z,18.43
2018-11-06T03:11:50.014Z,17.67
2018-11-06T03:14:18.166Z,17.43
2018-11-06T03:16:47.301Z,17.12
2018-11-06T03:19:15.571Z,17.90
2018-11-06T03:21:43.738Z,16.50
2018-11-06T03:24:12.096Z,15.58
2018-11-06T03:26:40.236Z,17.30
2018-11-06T03:29:08.399Z,14.38
2018-11-06T03:31:36.537Z,16.85
2018-11-06T03:34:04.702Z,16.82
2018-11-06T03:36:32.861Z,15.70
2018-11-06T03:39:01.039Z,19.23
2018-11-06T03:41:29.190Z,23.50
2018-11-06T03:43:57.361Z,21.70
2018-11-06T03:46:25.487Z,18.60
2018-11-06T03:48:53.712Z,18.00
2018-11-06T03:51:21.912Z,17.95
2018-11-06T03:53:50.069Z,17.95
2018-11-06T03:56:18.226Z,17.52
2018-11-06T03:58:46.350Z,17.53
2018-11-06T04:01:14.572Z,16.40
2018-11-06T04:03:43.851Z,13.77
2018-11-06T04:06:12.078Z,18.15
2018-11-06T04:08:40.246Z,14.83
2018-11-06T04:11:08.710Z,14.87
2018-11-06T04:13:36.847Z,14.80
2018-11-06T04:16:05.001Z,15.40
2018-11-06T04:18:34.027Z,16.87
2018-11-06T04:21:02.167Z,22.60
2018-11-06T04:23:31.083Z,18.47
2018-11-06T04:25:59.466Z,20.07
2018-11-06T04:28:27.735Z,15.70
2018-11-06T04:30:55.886Z,25.27
2018-11-06T04:33:24.106Z,21.87
2018-11-06T04:35:52.274Z,16.60
2018-11-06T04:38:20.408Z,18.43
2018-11-06T04:40:48.549Z,18.00
2018-11-06T04:43:16.706Z,20.33
2018-11-06T04:45:44.840Z,19.47
2018-11-06T04:48:13.031Z,24.77
2018-11-06T04:50:41.182Z,19.23
2018-11-06T04:53:09.324Z,19.33
2018-11-06T04:55:37.472Z,16.77
2018-11-06T04:58:05.595Z,17.37
2018-11-06T05:00:33.730Z,16.20
2018-11-06T05:03:01.893Z,19.37
2018-11-06T05:05:30.067Z,15.65
2018-11-06T05:07:58.219Z,15.00
2018-11-06T05:10:26.609Z,16.67
2018-11-06T05:12:54.722Z,18.37
2018-11-06T05:15:22.880Z,16.93
2018-11-06T05:17:51.022Z,14.57
2018-11-06T05:20:19.260Z,16.27
2018-11-06T05:22:47.857Z,14.97
2018-11-06T05:25:16.268Z,17.90
2018-11-06T05:27:44.415Z,14.93
2018-11-06T05:30:12.898Z,14.43
2018-11-06T05:32:42.421Z,16.63
2018-11-06T05:35:11.177Z,14.20
2018-11-06T05:37:39.557Z,14.15
2018-11-06T05:40:19.101Z,18.23
2018-11-06T05:42:47.242Z,18.07
2018-11-06T05:45:15.401Z,17.00
2018-11-06T05:47:43.542Z,15.07
2018-11-06T05:50:11.681Z,15.97
2018-11-06T05:52:39.822Z,14.87
2018-11-06T05:55:08.046Z,13.57
2018-11-06T05:57:36.359Z,14.90
2018-11-06T06:00:05.466Z,14.33
2018-11-06T06:02:33.616Z,15.00
2018-11-06T06:05:01.783Z,15.07
2018-11-06T06:07:29.979Z,13.15
2018-11-06T06:09:58.215Z,14.60
2018-11-06T06:12:26.366Z,13.40
2018-11-06T06:14:54.518Z,13.80
2018-11-06T06:17:22.703Z,15.87
2018-11-06T06:19:50.827Z,14.70
2018-11-06T06:22:19.114Z,13.83
2018-11-06T06:24:47.222Z,14.67
2018-11-06T06:27:15.371Z,15.58
2018-11-06T06:29:43.526Z,17.50
2018-11-06T06:32:11.650Z,16.33
2018-11-06T06:34:40.640Z,22.53
2018-11-06T06:37:08.727Z,16.70
2018-11-06T06:39:37.101Z,18.40
2018-11-06T06:42:05.715Z,17.87
2018-11-06T06:44:33.883Z,20.43
2018-11-06T06:47:03.053Z,19.47
2018-11-06T06:49:31.204Z,13.13
2018-11-06T06:51:59.411Z,12.10
2018-11-06T06:54:27.669Z,11.73
2018-11-06T06:56:55.815Z,11.33
2018-11-06T06:59:24.023Z,12.03
2018-11-06T07:01:52.210Z,11.87
2018-11-06T07:04:20.334Z,12.27
2018-11-06T07:06:49.822Z,12.40
2018-11-06T07:09:17.973Z,15.13
2018-11-06T07:11:46.426Z,17.40
2018-11-06T07:14:14.839Z,17.37
2018-11-06T07:16:43.547Z,17.20
2018-11-06T07:19:11.878Z,17.30
2018-11-06T07:21:40.050Z,17.50
2018-11-06T07:24:08.741Z,18.57
2018-11-06T07:26:36.886Z,17.83
2018-11-06T07:29:05.201Z,14.30
2018-11-06T07:31:33.348Z,13.80
2018-11-06T07:34:01.482Z,13.10
2018-11-06T07:36:29.637Z,14.00
2018-11-06T07:38:57.791Z,12.37
2018-11-06T07:41:25.944Z,13.97
2018-11-06T07:43:54.082Z,12.03
2018-11-06T07:46:22.288Z,12.50
2018-11-06T07:48:50.457Z,12.57
2018-11-06T07:51:18.626Z,13.57
2018-11-06T07:53:46.806Z,16.00
2018-11-06T07:56:15.004Z,13.33
2018-11-06T07:58:43.121Z,14.80
2018-11-06T08:01:11.646Z,14.37
2018-11-06T08:03:39.820Z,16.87
2018-11-06T08:06:07.993Z,16.40
2018-11-06T08:08:36.146Z,15.67
2018-11-06T08:11:04.316Z,15.13
2018-11-06T08:13:32.470Z,14.03
2018-11-06T08:16:00.602Z,15.80
2018-11-06T08:18:28.774Z,15.30
2018-11-06T08:20:56.864Z,14.33
2018-11-06T08:23:25.082Z,15.70
2018-11-06T08:25:54.058Z,14.47
2018-11-06T08:28:22.198Z,15.05
2018-11-06T08:30:50.500Z,15.17
2018-11-06T08:33:18.430Z,15.83
2018-11-06T08:35:46.549Z,13.17
2018-11-06T08:38:14.733Z,14.07
2018-11-06T08:40:42.841Z,12.57
2018-11-06T08:43:10.955Z,15.43
2018-11-06T08:45:39.077Z,15.15
2018-11-06T08:48:07.226Z,14.45
2018-11-06T08:50:35.298Z,13.50
2018-11-06T08:53:04.393Z,13.43
2018-11-06T08:55:32.661Z,12.55
2018-11-06T08:58:00.621Z,13.25
2018-11-06T09:00:28.751Z,12.88
2018-11-06T09:02:56.858Z,15.10
2018-11-06T09:05:25.033Z,13.72
2018-11-06T09:07:53.210Z,12.50
2018-11-06T09:10:21.941Z,16.10
2018-11-06T09:12:50.031Z,14.05
2018-11-06T09:15:18.182Z,14.35
2018-11-06T09:17:46.336Z,12.87
2018-11-06T09:20:15.622Z,11.57
2018-11-06T09:22:43.789Z,11.68
2018-11-06T09:25:13.199Z,11.05
2018-11-06T09:27:42.402Z,11.15
2018-11-06T09:30:12.842Z,13.62
2018-11-06T09:32:40.981Z,16.37
2018-11-06T09:35:10.227Z,14.98
2018-11-06T09:37:39.205Z,14.55
2018-11-06T09:40:08.853Z,15.28
2018-11-06T09:42:37.115Z,14.53
2018-11-06T09:45:05.348Z,13.10
2018-11-06T09:47:33.417Z,12.03
2018-11-06T09:50:01.530Z,13.15
2018-11-06T09:52:29.743Z,12.70
2018-11-06T09:54:57.850Z,12.30
2018-11-06T09:57:26.014Z,11.97
2018-11-06T09:59:54.126Z,12.10
2018-11-06T10:02:22.338Z,13.10
2018-11-06T10:04:50.457Z,11.30
2018-11-06T10:07:18.804Z,12.93
2018-11-06T10:09:46.666Z,12.63
2018-11-06T10:12:14.789Z,13.55
2018-11-06T10:14:42.901Z,13.55
2018-11-06T10:17:11.015Z,12.95
2018-11-06T10:19:39.160Z,13.43
2018-11-06T10:22:07.284Z,11.53
2018-11-06T10:24:35.409Z,13.38
2018-11-06T10:27:03.531Z,23.07
2018-11-06T10:29:32.548Z,18.57
2018-11-06T10:32:00.669Z,13.15
2018-11-06T10:34:28.790Z,13.68
2018-11-06T10:36:56.920Z,16.63
2018-11-06T10:39:25.012Z,14.20
2018-11-06T10:41:53.234Z,14.40
2018-11-06T10:44:21.346Z,12.05
2018-11-06T10:46:49.465Z,12.33
2018-11-06T10:49:17.594Z,15.53
2018-11-06T10:51:45.885Z,12.55
2018-11-06T10:54:13.948Z,11.30
2018-11-06T10:56:42.065Z,12.05
2018-11-06T10:59:10.189Z,12.75
2018-11-06T11:01:43.717Z,11.70
2018-11-06T11:04:23.804Z,11.93
2018-11-06T11:06:52.190Z,13.23
2018-11-06T11:09:20.297Z,13.45
2018-11-06T11:11:48.409Z,12.68
2018-11-06T11:14:16.522Z,12.03
2018-11-06T11:16:44.629Z,12.28
2018-11-06T11:19:12.731Z,11.97
2018-11-06T11:21:40.903Z,13.62
2018-11-06T11:24:08.996Z,13.03
2018-11-06T11:26:37.109Z,14.07
2018-11-06T11:29:05.427Z,13.98
2018-11-06T11:31:33.782Z,13.30
2018-11-06T11:34:01.889Z,14.43
2018-11-06T11:36:30.025Z,13.98
2018-11-06T11:38:58.421Z,12.50
2018-11-06T11:41:26.606Z,15.70
2018-11-06T11:43:55.002Z,14.05
2018-11-06T11:46:23.255Z,12.65
2018-11-06T11:48:51.528Z,14.45
2018-11-06T11:51:19.823Z,25.45
2018-11-06T11:53:47.925Z,13.88
2018-11-06T11:56:16.121Z,13.53
2018-11-06T11:58:47.001Z,13.55
2018-11-06T12:01:15.110Z,12.88
2018-11-06T12:03:43.202Z,13.25
2018-11-06T12:06:11.401Z,11.73
2018-11-06T12:08:39.513Z,11.85
2018-11-06T12:11:08.017Z,12.07
2018-11-06T12:13:36.202Z,13.18
2018-11-06T12:16:04.392Z,12.55
2018-11-06T12:18:32.523Z,11.88
2018-11-06T12:21:00.631Z,12.73
2018-11-06T12:23:28.740Z,12.73
2018-11-06T12:25:56.954Z,10.78
2018-11-06T12:28:25.063Z,12.78
2018-11-06T12:30:53.182Z,13.22
2018-11-06T12:33:21.706Z,11.97
2018-11-06T12:35:49.885Z,10.78
2018-11-06T12:38:18.010Z,11.40
2018-11-06T12:40:46.125Z,10.55
2018-11-06T12:43:14.287Z,12.03
2018-11-06T12:45:42.367Z,11.93
2018-11-06T12:48:10.541Z,11.97
2018-11-06T12:50:38.635Z,10.80
2018-11-06T12:53:06.782Z,11.33
2018-11-06T12:55:35.286Z,10.35
2018-11-06T12:58:03.402Z,10.57
2018-11-06T13:00:31.514Z,12.43
2018-11-06T13:03:00.105Z,11.10
2018-11-06T13:05:28.230Z,11.90
2018-11-06T13:07:56.337Z,10.88
2018-11-06T13:10:24.455Z,10.53
2018-11-06T13:12:52.573Z,10.88
2018-11-06T13:15:20.712Z,9.80
2018-11-06T13:17:48.822Z,10.88
2018-11-06T13:20:17.206Z,9.38
2018-11-06T13:22:45.811Z,10.18
2018-11-06T13:25:13.911Z,11.08
2018-11-06T13:27:42.462Z,9.05
2018-11-06T13:30:15.368Z,10.08
2018-11-06T13:32:45.357Z,9.73
2018-11-06T13:35:13.493Z,10.68
2018-11-06T13:37:41.841Z,10.18
2018-11-06T13:40:12.330Z,9.83
2018-11-06T13:42:40.519Z,10.93
2018-11-06T13:45:11.283Z,10.72
2018-11-06T13:47:39.262Z,10.65
2018-11-06T13:50:08.072Z,9.80
2018-11-06T13:52:36.482Z,9.75
2018-11-06T13:55:04.618Z,9.60
2018-11-06T13:57:32.742Z,9.75
2018-11-06T14:00:00.877Z,9.98
2018-11-06T14:02:29.029Z,8.80
2018-11-06T14:04:57.141Z,9.53
2018-11-06T14:07:25.242Z,9.18
2018-11-06T14:09:53.650Z,9.53
2018-11-06T14:12:21.757Z,9.25
2018-11-06T14:14:50.344Z,9.13
2018-11-06T14:17:18.432Z,9.30
2018-11-06T14:19:46.533Z,8.40
2018-11-06T14:22:14.661Z,9.33
2018-11-06T14:24:42.796Z,9.13
2018-11-06T14:27:10.998Z,8.70
2018-11-06T14:29:39.014Z,9.25
2018-11-06T14:32:07.260Z,9.00
2018-11-06T14:34:35.416Z,14.58
2018-11-06T14:37:03.529Z,13.25
2018-11-06T14:39:31.642Z,9.48
2018-11-06T14:41:59.771Z,11.38
2018-11-06T14:44:27.893Z,9.88
2018-11-06T14:46:56.069Z,10.43
2018-11-06T14:49:24.230Z,8.88
2018-11-06T14:51:52.294Z,7.60
2018-11-06T14:54:20.455Z,8.28
2018-11-06T14:56:48.603Z,7.65
2018-11-06T14:59:16.838Z,7.65
2018-11-06T15:02:05.161Z,8.23
2018-11-06T15:04:33.550Z,8.08
2018-11-06T15:07:01.670Z,8.43
2018-11-06T15:09:29.772Z,8.48
2018-11-06T15:11:57.892Z,9.55
2018-11-06T15:14:26.580Z,25.10
2018-11-06T15:16:54.677Z,21.60
2018-11-06T15:19:22.899Z,16.87
2018-11-06T15:21:51.038Z,12.90
2018-11-06T15:24:19.149Z,13.55
2018-11-06T15:26:47.248Z,13.53
2018-11-06T15:29:15.366Z,11.83
2018-11-06T15:31:43.491Z,12.80
2018-11-06T15:34:12.977Z,12.35
2018-11-06T15:36:41.130Z,10.55
2018-11-06T15:39:09.644Z,10.55
2018-11-06T15:41:38.645Z,9.38
2018-11-06T15:44:06.653Z,8.63
2018-11-06T15:46:35.083Z,9.25
2018-11-06T15:49:03.224Z,10.50
2018-11-06T15:51:31.525Z,11.95
2018-11-06T15:53:59.641Z,10.08
2018-11-06T15:56:27.889Z,11.05
2018-11-06T15:58:56.002Z,12.07
2018-11-06T16:01:25.539Z,10.98
2018-11-06T16:03:53.683Z,10.60
2018-11-06T16:06:21.929Z,11.95
2018-11-06T16:08:50.269Z,11.90
2018-11-06T16:11:18.400Z,11.25
2018-11-06T16:13:46.645Z,11.00
2018-11-06T16:16:14.758Z,10.93
2018-11-06T16:18:42.905Z,10.15
2018-11-06T16:21:11.018Z,10.98
2018-11-06T16:23:39.130Z,10.00
2018-11-06T16:26:07.272Z,10.18
2018-11-06T16:28:35.394Z,10.30
2018-11-06T16:31:03.490Z,10.53
2018-11-06T16:33:31.643Z,9.63
2018-11-06T16:36:00.362Z,10.85
2018-11-06T16:38:28.463Z,9.95
2018-11-06T16:40:56.619Z,10.05
2018-11-06T16:43:24.731Z,11.18
2018-11-06T16:45:52.838Z,9.75
2018-11-06T16:48:21.500Z,9.13
2018-11-06T16:50:49.569Z,9.25
2018-11-06T16:53:17.686Z,9.68
2018-11-06T16:55:45.820Z,10.23
2018-11-06T16:58:13.923Z,10.13
2018-11-06T17:00:42.130Z,10.60
2018-11-06T17:03:10.169Z,10.65
2018-11-06T17:05:38.385Z,9.68
2018-11-06T17:08:06.509Z,11.15
2018-11-06T17:10:34.679Z,17.52
2018-11-06T17:13:02.816Z,9.73
2018-11-06T17:15:30.938Z,10.05
2018-11-06T17:17:59.079Z,9.25
2018-11-06T17:20:27.202Z,10.65
2018-11-06T17:22:55.320Z,11.10
2018-11-06T17:25:24.094Z,16.73
2018-11-06T17:27:52.209Z,10.28
2018-11-06T17:30:20.502Z,12.05
2018-11-06T17:32:48.706Z,8.50
2018-11-06T17:35:17.999Z,12.47
2018-11-06T17:37:46.643Z,12.88
2018-11-06T17:40:16.946Z,11.38
2018-11-06T17:42:45.191Z,11.28
2018-11-06T17:45:21.443Z,12.05
2018-11-06T17:47:49.492Z,11.93
2018-11-06T17:50:17.902Z,10.98
2018-11-06T17:52:46.202Z,10.28
2018-11-06T17:55:16.048Z,12.88
2018-11-06T17:57:43.959Z,12.15
2018-11-06T18:00:18.530Z,10.48
2018-11-06T18:02:46.941Z,10.65
2018-11-06T18:05:15.821Z,8.53
2018-11-06T18:07:44.314Z,11.00
2018-11-06T18:10:13.919Z,11.05
2018-11-06T18:12:42.205Z,10.55
2018-11-06T18:15:10.368Z,10.78
2018-11-06T18:17:43.287Z,13.40
2018-11-06T18:20:12.607Z,36.35
2018-11-06T18:22:44.705Z,14.50
2018-11-06T18:25:16.258Z,11.38
2018-11-06T18:27:45.164Z,13.98
2018-11-06T18:30:15.446Z,11.93
2018-11-06T18:32:43.549Z,11.08
2018-11-06T18:35:15.941Z,11.85
2018-11-06T18:37:46.269Z,11.90
2018-11-06T18:40:17.746Z,9.83
2018-11-06T18:42:47.867Z,10.23
2018-11-06T18:45:17.156Z,11.63
2018-11-06T18:47:46.697Z,11.73
2018-11-06T18:50:16.050Z,11.43
2018-11-06T18:52:47.192Z,14.28
2018-11-06T18:55:17.354Z,15.63
2018-11-06T18:57:45.573Z,12.90
2018-11-06T19:00:17.113Z,12.47
2018-11-06T19:02:46.431Z,10.90
2018-11-06T19:05:15.195Z,11.88
2018-11-06T19:07:43.375Z,16.95
2018-11-06T19:10:13.193Z,12.98
2018-11-06T19:12:41.496Z,15.18
2018-11-06T19:15:13.114Z,16.55
2018-11-06T19:17:41.709Z,16.00
2018-11-06T19:20:10.586Z,16.60
2018-11-06T19:22:38.873Z,12.75
2018-11-06T19:25:08.114Z,14.53
2018-11-06T19:27:36.325Z,13.43
2018-11-06T19:30:05.967Z,12.78
2018-11-06T19:32:34.073Z,15.90
2018-11-06T19:35:02.184Z,18.37
2018-11-06T19:37:31.482Z,16.45
2018-11-06T19:39:59.601Z,12.33
2018-11-06T19:42:27.853Z,12.78
2018-11-06T19:44:56.029Z,14.68
2018-11-06T19:47:24.219Z,17.25
2018-11-06T19:49:52.611Z,18.35
2018-11-06T19:52:20.692Z,18.48
2018-11-06T19:54:48.801Z,18.12
2018-11-06T19:57:16.918Z,17.05
2018-11-06T19:59:45.125Z,18.23
2018-11-06T20:02:13.262Z,23.10
2018-11-06T20:04:41.387Z,19.57
2018-11-06T20:07:09.595Z,19.23
2018-11-06T20:09:37.713Z,16.90
2018-11-06T20:12:06.984Z,12.80
2018-11-06T20:14:35.058Z,34.75
2018-11-06T20:17:03.241Z,19.00
2018-11-06T20:19:31.405Z,14.10
2018-11-06T20:21:59.625Z,15.10
2018-11-06T20:24:27.733Z,15.88
2018-11-06T20:26:55.894Z,17.10
2018-11-06T20:29:24.000Z,18.62
2018-11-06T20:31:52.106Z,19.48
2018-11-06T20:34:20.286Z,18.75
2018-11-06T20:36:48.402Z,21.80
2018-11-06T20:39:16.526Z,20.70
2018-11-06T20:41:45.426Z,17.52
2018-11-06T20:44:13.539Z,18.85
2018-11-06T20:46:41.745Z,17.15
2018-11-06T20:49:09.997Z,13.08
2018-11-06T20:51:38.077Z,18.95
2018-11-06T20:54:06.265Z,14.78
2018-11-06T20:56:35.208Z,15.65
2018-11-06T20:59:03.314Z,35.30
2018-11-06T21:01:31.506Z,30.95
2018-11-06T21:03:59.742Z,25.15
2018-11-06T21:06:27.873Z,22.98
2018-11-06T21:08:56.029Z,20.15
2018-11-06T21:11:24.710Z,14.73
2018-11-06T21:13:52.894Z,15.05
2018-11-06T21:16:21.000Z,21.80
2018-11-06T21:18:49.214Z,16.05
2018-11-06T21:21:17.330Z,15.23
2018-11-06T21:23:45.434Z,11.93
2018-11-06T21:26:13.824Z,23.02
2018-11-06T21:28:41.715Z,15.88
2018-11-06T21:31:09.816Z,15.63
2018-11-06T21:33:37.965Z,15.40
2018-11-06T21:36:06.147Z,13.55
2018-11-06T21:38:34.310Z,13.30
2018-11-06T21:41:02.473Z,11.18
2018-11-06T21:43:30.646Z,11.57
2018-11-06T21:45:58.749Z,13.32
2018-11-06T21:48:26.933Z,17.05
2018-11-06T21:50:55.017Z,18.75
2018-11-06T21:53:23.149Z,17.42
2018-11-06T21:55:51.321Z,14.23
2018-11-06T21:58:19.508Z,15.72
2018-11-06T22:00:47.794Z,17.67
2018-11-06T22:03:15.835Z,17.07
2018-11-06T22:05:43.957Z,22.27
2018-11-06T22:08:12.117Z,29.05
2018-11-06T22:10:40.231Z,18.65
2018-11-06T22:13:08.468Z,17.92
2018-11-06T22:15:36.541Z,17.80
2018-11-06T22:18:04.697Z,17.57
2018-11-06T22:20:32.806Z,18.02
2018-11-06T22:23:00.941Z,16.35
2018-11-06T22:25:29.039Z,18.65
2018-11-06T22:27:57.161Z,17.82
2018-11-06T22:30:29.271Z,20.32
2018-11-06T22:32:58.994Z,17.70
2018-11-06T22:35:27.110Z,16.57
2018-11-06T22:37:59.737Z,15.55
2018-11-06T22:40:27.849Z,17.37
2018-11-06T22:42:56.041Z,20.85
2018-11-06T22:45:24.284Z,20.52
2018-11-06T22:47:52.383Z,21.17
2018-11-06T22:50:20.617Z,20.32
2018-11-06T22:52:49.293Z,21.68
2018-11-06T22:55:17.581Z,23.75
2018-11-06T22:57:46.525Z,36.90
2018-11-06T23:00:17.274Z,20.88
2018-11-06T23:02:45.663Z,23.25
2018-11-06T23:05:14.453Z,23.87
2018-11-06T23:07:48.106Z,23.35
2018-11-06T23:10:16.230Z,27.32
2018-11-06T23:12:44.358Z,22.37
2018-11-06T23:15:12.530Z,23.00
2018-11-06T23:17:40.704Z,23.30
2018-11-06T23:20:09.483Z,28.00
2018-11-06T23:22:37.541Z,23.15
2018-11-06T23:25:06.138Z,20.88
2018-11-06T23:27:34.194Z,20.23
2018-11-06T23:30:02.415Z,22.55
2018-11-06T23:32:30.542Z,22.65
2018-11-06T23:34:58.649Z,22.77
2018-11-06T23:37:26.780Z,18.57
2018-11-06T23:39:54.918Z,20.77
2018-11-06T23:42:23.025Z,28.87
2018-11-06T23:44:51.149Z,36.75
2018-11-06T23:47:19.820Z,31.68
2018-11-06T23:49:47.921Z,21.00
2018-11-06T23:52:16.022Z,20.68
2018-11-06T23:54:44.146Z,20.05
2018-11-06T23:57:12.342Z,18.55
2018-11-06T23:59:40.436Z,21.70
